Time;durP1;ratioP1;P1;durP2;ratioP2;P2;SDS_P1;SDS_P2;PMS_P1;PMS_P2;Temp;Humidity;BMP_temperature;BMP_pressure;BME280_temperature;BME280_humidity;BME280_pressure;Samples;Min_cycle;Max_cycle;Signal;HPM_P1;HPM_P2
2022/12/15 00:40:04;;;;;;;1.53;1.53;;;;;;;-2.30;100.00;99230.84;5025419;28;20482;-54
2022/12/15 00:42:30;;;;;;;2.07;1.97;;;;;;;-2.21;100.00;99234.34;5021844;28;20451;-54
2022/12/15 00:44:57;;;;;;;4.57;3.20;;;;;;;-2.35;100.00;99223.00;5032276;28;20494;-54
2022/12/15 00:47:24;;;;;;;2.97;2.67;;;;;;;-2.35;100.00;99227.31;5048398;28;20444;-54
2022/12/15 01:20:17;;;;;;;0.60;0.60;;;;;;;-3.25;100.00;99281.22;5021631;28;20522;-54
2022/12/15 01:22:45;;;;;;;0.70;0.70;;;;;;;-3.12;100.00;99277.88;5024567;28;20474;-54
2022/12/15 01:25:12;;;;;;;1.80;0.93;;;;;;;-3.28;100.00;99289.84;5034238;28;20507;-53
2022/12/15 01:27:39;;;;;;;1.43;1.27;;;;;;;-3.35;100.00;99295.81;5020989;28;20452;-54
2022/12/15 01:30:07;;;;;;;3.60;1.67;;;;;;;-3.38;100.00;99296.66;5024832;28;20477;-54
2022/12/15 01:32:34;;;;;;;2.43;2.33;;;;;;;-3.47;100.00;99293.97;5027563;28;20942;-55
2022/12/15 01:35:00;;;;;;;1.20;1.20;;;;;;;-3.61;100.00;99299.00;5024175;28;20444;-54
2022/12/15 01:37:26;;;;;;;1.10;1.10;;;;;;;-3.33;100.00;99309.69;5020892;28;20478;-54
2022/12/15 01:42:38;;;;;;;2.30;2.10;;;;;;;-3.43;100.00;99311.31;5027352;28;20451;-54
2022/12/15 01:45:22;;;;;;;2.10;2.00;;;;;;;-3.63;100.00;99305.91;5022814;28;20549;-54
2022/12/15 01:48:11;;;;;;;1.53;1.30;;;;;;;-3.67;100.00;99303.25;5021211;28;20920;-54
2022/12/15 01:50:52;;;;;;;3.17;0.70;;;;;;;-3.76;100.00;99303.13;5020235;28;20502;-54
2022/12/15 01:53:18;;;;;;;2.87;1.17;;;;;;;-3.85;100.00;99321.16;5026634;28;20492;-54
2022/12/15 01:55:46;;;;;;;3.87;2.60;;;;;;;-3.80;100.00;99323.00;5027364;28;20449;-53
2022/12/15 01:58:16;;;;;;;1.40;1.40;;;;;;;-3.85;100.00;99329.84;5027103;28;20755;-54
2022/12/15 02:00:43;;;;;;;1.53;0.73;;;;;;;-3.90;100.00;99329.78;5020809;28;20456;-54
2022/12/15 02:03:11;;;;;;;0.80;0.80;;;;;;;-3.98;100.00;99331.38;5020015;28;20484;-54
2022/12/15 02:05:40;;;;;;;6.83;1.20;;;;;;;-4.04;100.00;99333.91;5026475;28;21022;-55
2022/12/15 02:08:08;;;;;;;0.40;0.40;;;;;;;-3.98;100.00;99330.50;5026914;28;20468;-54
2022/12/15 02:10:58;;;;;;;1.03;1.03;;;;;;;-4.09;100.00;99335.59;5021237;28;20543;-55
2022/12/15 02:13:39;;;;;;;0.87;0.87;;;;;;;-4.24;100.00;99328.44;5020186;28;20448;-54
2022/12/15 02:16:22;;;;;;;2.67;1.97;;;;;;;-4.39;100.00;99328.19;5020727;28;20444;-54
2022/12/15 02:19:32;;;;;;;0.67;0.67;;;;;;;-4.43;100.00;99328.13;5022255;28;20505;-54
2022/12/15 02:22:27;;;;;;;0.50;0.50;;;;;;;-4.59;100.00;99322.69;5025326;28;20452;-54
2022/12/15 02:25:06;;;;;;;1.50;1.40;;;;;;;-4.59;100.00;99317.53;5026270;28;20488;-54
2022/12/15 02:27:35;;;;;;;1.53;1.53;;;;;;;-4.62;100.00;99321.78;5026619;28;20451;-55
2022/12/15 02:30:21;;;;;;;0.43;0.43;;;;;;;-4.78;100.00;99315.50;5020783;28;20471;-54
2022/12/15 02:33:06;;;;;;;2.20;0.93;;;;;;;-4.87;100.00;99310.13;5019932;28;20452;-54
2022/12/15 02:35:55;;;;;;;0.60;0.60;;;;;;;-4.98;100.00;99314.25;5020335;28;20444;-54
2022/12/15 02:38:31;;;;;;;0.50;0.50;;;;;;;-5.05;100.00;99325.38;5022264;28;20993;-54
2022/12/15 02:40:59;;;;;;;4.13;0.80;;;;;;;-5.07;100.00;99331.41;5019922;28;20832;-54
2022/12/15 02:43:28;;;;;;;0.47;0.47;;;;;;;-5.18;100.00;99335.50;5021961;28;20960;-54
2022/12/15 02:46:26;;;;;;;0.40;0.40;;;;;;;-5.28;100.00;99340.47;5036938;28;20568;-54
2022/12/15 02:49:11;;;;;;;1.63;1.53;;;;;;;-5.41;100.00;99332.47;5032377;28;20464;-54
2022/12/15 02:51:55;;;;;;;0.77;0.77;;;;;;;-5.38;100.00;99345.47;5019085;28;20449;-54
2022/12/15 02:54:37;;;;;;;0.77;0.77;;;;;;;-5.62;100.00;99341.50;5032346;28;20965;-54
2022/12/15 02:57:21;;;;;;;0.90;0.90;;;;;;;-5.59;100.00;99346.78;5019367;28;20463;-54
2022/12/15 02:59:59;;;;;;;3.27;2.40;;;;;;;-5.61;100.00;99349.34;5019149;28;20472;-53
2022/12/15 03:02:29;;;;;;;1.17;1.07;;;;;;;-5.59;100.00;99352.81;5020632;28;20455;-54
2022/12/15 03:04:57;;;;;;;1.23;1.13;;;;;;;-5.68;100.00;99366.44;5019255;28;20526;-53
2022/12/15 03:07:26;;;;;;;0.40;0.40;;;;;;;-5.81;100.00;99358.38;5023660;28;20823;-54
2022/12/15 03:09:56;;;;;;;0.50;0.50;;;;;;;-5.93;100.00;99364.19;5025354;28;20530;-54
2022/12/15 03:12:22;;;;;;;3.10;0.83;;;;;;;-5.82;100.00;99364.41;5022525;28;20834;-53
2022/12/15 03:14:49;;;;;;;0.47;0.47;;;;;;;-5.90;100.00;99377.19;5019013;28;20440;-53
2022/12/15 03:17:15;;;;;;;0.53;0.53;;;;;;;-5.99;100.00;99383.06;5022569;28;20457;-54
2022/12/15 03:19:42;;;;;;;0.20;0.20;;;;;;;-6.02;100.00;99382.13;5025590;28;20480;-53
2022/12/15 03:22:08;;;;;;;2.60;2.50;;;;;;;-6.11;100.00;99389.66;5022337;28;20793;-53
2022/12/15 03:24:35;;;;;;;0.30;0.30;;;;;;;-6.16;100.00;99388.69;5028341;28;20489;-53
2022/12/15 03:27:02;;;;;;;0.37;0.37;;;;;;;-6.25;100.00;99386.75;5022677;28;20451;-53
2022/12/15 03:29:29;;;;;;;2.13;2.03;;;;;;;-6.23;100.00;99385.06;5018759;28;20475;-53
2022/12/15 03:31:55;;;;;;;0.20;0.20;;;;;;;-6.27;100.00;99381.56;5021601;28;20452;-54
2022/12/15 03:34:21;;;;;;;1.10;1.10;;;;;;;-6.19;100.00;99379.13;5025470;28;20456;-53
2022/12/15 03:36:48;;;;;;;4.63;1.40;;;;;;;-6.30;100.00;99384.06;5022730;28;21271;-53
2022/12/15 03:39:14;;;;;;;0.70;0.70;;;;;;;-6.26;100.00;99387.59;5018241;28;21050;-53
2022/12/15 03:41:41;;;;;;;0.93;0.93;;;;;;;-6.28;100.00;99394.44;5021481;28;20468;-53
2022/12/15 03:44:08;;;;;;;0.30;0.30;;;;;;;-6.19;100.00;99393.75;5026117;28;20457;-53
2022/12/15 03:46:34;;;;;;;14.40;1.93;;;;;;;-6.27;100.00;99388.44;5032145;28;20447;-53
2022/12/15 03:49:02;;;;;;;0.53;0.53;;;;;;;-6.39;100.00;99393.31;5027207;28;20480;-53
2022/12/15 03:51:29;;;;;;;1.27;1.17;;;;;;;-6.33;100.00;99401.19;5017675;28;20474;-52
2022/12/15 03:53:57;;;;;;;0.50;0.50;;;;;;;-6.25;100.00;99407.44;5029639;28;20448;-52
2022/12/15 03:56:24;;;;;;;0.40;0.40;;;;;;;-6.24;100.00;99403.13;5019696;28;20447;-53
2022/12/15 03:58:50;;;;;;;1.17;1.17;;;;;;;-6.30;100.00;99391.81;5025113;28;20495;-53
2022/12/15 04:01:19;;;;;;;1.03;1.03;;;;;;;-6.17;100.00;99405.00;5024339;28;20447;-53
2022/12/15 04:03:46;;;;;;;1.20;1.20;;;;;;;-6.11;100.00;99408.63;5018345;28;20570;-54
2022/12/15 04:06:12;;;;;;;0.40;0.40;;;;;;;-6.09;100.00;99408.66;5019076;28;20528;-54
2022/12/15 04:08:39;;;;;;;0.50;0.50;;;;;;;-5.98;100.00;99420.13;5025383;28;20479;-54
2022/12/15 04:11:05;;;;;;;1.07;0.50;;;;;;;-5.83;100.00;99425.63;5026788;28;20447;-53
2022/12/15 04:13:32;;;;;;;0.30;0.30;;;;;;;-5.78;100.00;99423.13;5029738;28;20551;-53
2022/12/15 04:16:01;;;;;;;1.47;1.43;;;;;;;-5.97;100.00;99421.88;5011001;28;20450;-53
2022/12/15 04:18:27;;;;;;;0.40;0.40;;;;;;;-6.01;100.00;99420.06;5022266;28;20843;-53
2022/12/15 04:20:54;;;;;;;2.63;2.53;;;;;;;-6.02;100.00;99418.31;5021924;28;20455;-53
2022/12/15 04:23:21;;;;;;;1.13;1.13;;;;;;;-6.03;100.00;99420.03;5026738;28;20451;-54
2022/12/15 05:32:22;;;;;;;1.60;1.50;;;;;;;-6.50;99.98;99462.81;5027563;28;20505;-52
2022/12/15 05:34:49;;;;;;;0.83;0.83;;;;;;;-6.50;99.72;99459.34;5021659;28;20886;-52
2022/12/15 05:37:15;;;;;;;1.43;1.27;;;;;;;-6.50;99.90;99451.59;5020979;28;20475;-52
2022/12/15 05:39:41;;;;;;;1.10;1.03;;;;;;;-6.67;99.96;99443.41;5026609;28;20492;-53
2022/12/15 05:42:08;;;;;;;0.43;0.43;;;;;;;-6.70;100.00;99451.09;5027401;28;20458;-53
2022/12/15 05:44:34;;;;;;;1.63;1.63;;;;;;;-6.71;100.00;99452.81;5021948;28;20452;-53
2022/12/15 05:47:01;;;;;;;0.50;0.50;;;;;;;-6.63;100.00;99456.44;5047551;28;20479;-53
2022/12/15 05:49:27;;;;;;;0.83;0.83;;;;;;;-6.62;100.00;99462.50;5025869;28;20825;-53
2022/12/15 05:51:53;;;;;;;1.27;1.27;;;;;;;-6.68;100.00;99463.22;5021825;28;20507;-53
2022/12/15 05:54:20;;;;;;;4.13;0.87;;;;;;;-6.64;100.00;99464.16;5033932;28;21011;-53
2022/12/15 05:56:47;;;;;;;6.00;4.60;;;;;;;-6.59;100.00;99471.19;5020203;28;20448;-53
2022/12/15 05:59:16;;;;;;;0.50;0.50;;;;;;;-6.67;100.00;99480.47;5025063;28;20511;-53
2022/12/15 06:01:42;;;;;;;1.60;1.13;;;;;;;-6.69;100.00;99481.25;5027465;28;20452;-53
2022/12/15 06:04:13;;;;;;;4.60;3.30;;;;;;;-6.78;100.00;99491.34;5022844;28;20448;-53
2022/12/15 06:06:41;;;;;;;1.50;1.40;;;;;;;-6.82;100.00;99495.56;5020895;28;20492;-53
2022/12/15 06:09:08;;;;;;;5.20;2.10;;;;;;;-6.69;99.87;99494.19;5024377;28;20998;-52
2022/12/15 06:11:34;;;;;;;2.33;0.97;;;;;;;-6.53;100.00;99491.16;5027602;28;20452;-53
2022/12/15 06:14:01;;;;;;;0.60;0.60;;;;;;;-6.43;100.00;99506.09;5024655;28;20454;-53
2022/12/15 06:16:28;;;;;;;4.43;0.93;;;;;;;-6.38;100.00;99506.19;5020957;28;20506;-52
2022/12/15 06:18:57;;;;;;;1.07;0.53;;;;;;;-6.33;100.00;99508.06;5023908;28;20484;-53
2022/12/15 06:21:27;;;;;;;1.73;1.13;;;;;;;-6.18;100.00;99512.75;5027752;28;20503;-53
2022/12/15 06:23:55;;;;;;;1.13;1.13;;;;;;;-5.99;100.00;99517.56;5029735;28;20452;-53
2022/12/15 06:26:34;;;;;;;0.83;0.83;;;;;;;-5.95;100.00;99507.28;5020772;28;20496;-53
2022/12/15 06:29:02;;;;;;;1.93;1.80;;;;;;;-5.95;100.00;99507.28;5020676;28;20470;-53
2022/12/15 06:31:30;;;;;;;2.33;1.60;;;;;;;-5.77;100.00;99515.44;5027122;28;20456;-53
2022/12/15 06:33:57;;;;;;;6.70;2.90;;;;;;;-5.60;100.00;99511.56;5027001;28;20507;-51
2022/12/15 06:36:29;;;;;;;0.20;0.20;;;;;;;-5.45;100.00;99516.19;5022096;28;20448;-53
2022/12/15 06:39:01;;;;;;;0.47;0.47;;;;;;;-5.49;100.00;99511.78;5020166;28;20526;-53
2022/12/15 06:41:29;;;;;;;1.47;1.47;;;;;;;-5.17;100.00;99513.38;5024083;28;20456;-52
2022/12/15 06:43:56;;;;;;;4.50;1.23;;;;;;;-4.99;100.00;99518.06;5027090;28;20453;-53
2022/12/15 06:46:24;;;;;;;1.00;0.77;;;;;;;-4.93;100.00;99523.38;5033817;28;20487;-52
2022/12/15 06:48:52;;;;;;;5.40;1.13;;;;;;;-4.81;100.00;99518.41;5030788;28;20476;-53
2022/12/15 06:51:18;;;;;;;0.87;0.70;;;;;;;-4.80;100.00;99525.38;5020131;28;20452;-53
2022/12/15 06:53:47;;;;;;;2.77;1.07;;;;;;;-4.80;100.00;99517.59;5030618;28;20452;-53
2022/12/15 06:56:23;;;;;;;1.37;1.27;;;;;;;-4.77;100.00;99524.56;5023616;28;20444;-53
2022/12/15 06:58:58;;;;;;;1.63;1.57;;;;;;;-4.80;100.00;99520.19;5027035;28;20483;-54
2022/12/15 07:01:25;;;;;;;0.30;0.30;;;;;;;-4.44;100.00;99513.09;5026332;28;20444;-55
2022/12/15 07:03:52;;;;;;;3.13;2.83;;;;;;;-4.51;100.00;99515.56;5019422;28;20941;-55
2022/12/15 07:06:20;;;;;;;0.80;0.80;;;;;;;-4.26;100.00;99514.28;5001618;28;20579;-54
2022/12/15 07:08:52;;;;;;;1.27;1.27;;;;;;;-4.14;100.00;99516.22;5019347;28;20476;-55
2022/12/15 07:11:20;;;;;;;2.30;2.10;;;;;;;-4.23;100.00;99524.75;5019398;28;20453;-55
2022/12/15 07:13:49;;;;;;;3.70;1.47;;;;;;;-4.18;100.00;99517.03;5024212;28;20453;-55
2022/12/15 07:16:16;;;;;;;1.27;1.00;;;;;;;-4.16;100.00;99517.94;5026005;28;20482;-54
2022/12/15 07:18:43;;;;;;;2.60;1.20;;;;;;;-4.03;100.00;99527.66;5021503;28;20554;-55
2022/12/15 07:21:10;;;;;;;0.77;0.77;;;;;;;-3.82;100.00;99527.19;5019592;28;20555;-55
2022/12/15 07:23:37;;;;;;;2.10;2.00;;;;;;;-3.99;100.00;99524.28;5026246;28;20452;-55
2022/12/15 07:26:22;;;;;;;0.90;0.90;;;;;;;-4.10;100.00;99523.25;5032006;28;21037;-55
2022/12/15 07:28:49;;;;;;;1.10;1.10;;;;;;;-3.96;100.00;99528.66;5021224;28;20595;-56
2022/12/15 07:31:15;;;;;;;7.10;3.07;;;;;;;-4.06;100.00;99526.75;5025972;28;20456;-56
2022/12/15 07:33:42;;;;;;;0.57;0.57;;;;;;;-4.02;100.00;99523.34;5024496;28;20502;-55
2022/12/15 07:36:09;;;;;;;0.60;0.60;;;;;;;-3.81;100.00;99522.84;5019279;28;20450;-56
2022/12/15 07:38:36;;;;;;;3.60;2.20;;;;;;;-3.90;100.00;99533.94;5020015;28;20880;-53
2022/12/15 07:41:05;;;;;;;1.50;1.50;;;;;;;-3.90;100.00;99540.00;5025457;28;20448;-53
2022/12/15 07:43:32;;;;;;;2.93;2.30;;;;;;;-3.84;100.00;99540.94;5024619;28;20456;-55
2022/12/15 07:45:59;;;;;;;1.87;1.73;;;;;;;-3.65;100.00;99540.41;5037976;28;20548;-55
2022/12/15 07:48:27;;;;;;;1.80;1.80;;;;;;;-3.65;100.00;99543.00;5043279;28;20537;-55
2022/12/15 07:50:56;;;;;;;1.80;1.53;;;;;;;-3.67;100.00;99549.91;5030666;28;20458;-55
2022/12/15 07:53:32;;;;;;;2.20;2.10;;;;;;;-3.54;100.00;99548.38;5034215;28;20538;-58
2022/12/15 07:56:00;;;;;;;0.93;0.93;;;;;;;-3.44;100.00;99547.66;5027790;28;20965;-55
2022/12/15 07:58:36;;;;;;;2.60;2.40;;;;;;;-3.46;100.00;99541.56;5029481;28;20996;-55
2022/12/15 08:01:05;;;;;;;0.50;0.50;;;;;;;-3.20;100.00;99541.94;5026321;28;20938;-55
2022/12/15 08:03:33;;;;;;;2.77;2.57;;;;;;;-3.28;100.00;99547.94;5022872;28;20448;-55
2022/12/15 08:06:09;;;;;;;2.30;2.20;;;;;;;-3.09;100.00;99554.25;5025690;28;20499;-55
2022/12/15 08:08:36;;;;;;;3.80;1.80;;;;;;;-3.18;100.00;99559.31;5029468;28;20474;-55
2022/12/15 08:11:07;;;;;;;1.43;1.40;;;;;;;-2.96;100.00;99550.09;5028532;28;20945;-55
2022/12/15 08:13:34;;;;;;;0.93;0.93;;;;;;;-2.84;100.00;99547.66;5023255;28;20443;-54
2022/12/15 08:16:21;;;;;;;7.03;3.53;;;;;;;-2.86;100.00;99551.09;5020766;28;20446;-55
2022/12/15 08:18:48;;;;;;;0.63;0.63;;;;;;;-2.91;100.00;99555.34;5008089;28;20479;-55
2022/12/15 08:21:15;;;;;;;13.10;4.37;;;;;;;-2.84;100.00;99542.47;5022433;28;20480;-55
2022/12/15 08:23:41;;;;;;;4.10;3.57;;;;;;;-2.98;100.00;99541.41;5036237;28;20448;-55
2022/12/15 08:26:11;;;;;;;13.00;1.93;;;;;;;-2.96;100.00;99550.09;5022399;28;20491;-54
2022/12/15 08:28:39;;;;;;;5.37;2.37;;;;;;;-2.93;100.00;99568.31;5025603;28;20560;-55
2022/12/15 08:31:08;;;;;;;1.60;1.50;;;;;;;-2.95;100.00;99557.03;5029401;28;20511;-55
2022/12/15 08:33:35;;;;;;;11.53;4.37;;;;;;;-2.90;100.00;99570.09;5026383;28;20458;-55
2022/12/15 08:36:05;;;;;;;3.03;2.83;;;;;;;-2.84;100.00;99565.88;5022247;28;20513;-54
2022/12/15 08:38:32;;;;;;;2.47;2.37;;;;;;;-2.72;100.00;99570.34;5024169;28;20488;-55
2022/12/15 08:41:06;;;;;;;4.70;3.03;;;;;;;-2.44;100.00;99577.63;5029401;28;20503;-52
2022/12/15 08:43:33;;;;;;;4.63;3.13;;;;;;;-2.62;100.00;99564.38;5027830;28;20964;-52
2022/12/15 08:46:00;;;;;;;4.80;2.83;;;;;;;-2.67;100.00;99575.59;5031851;28;20505;-52
2022/12/15 08:48:26;;;;;;;4.30;2.10;;;;;;;-2.45;100.00;99564.63;5035216;28;20482;-50
2022/12/15 08:50:57;;;;;;;2.23;2.03;;;;;;;-2.24;100.00;99567.44;5020960;28;20953;-53
2022/12/15 08:53:25;;;;;;;3.70;3.40;;;;;;;-2.20;100.00;99573.53;5028869;28;20455;-51
2022/12/15 08:56:05;;;;;;;3.13;1.17;;;;;;;-2.24;100.00;99590.88;5026169;28;20455;-52
2022/12/15 08:58:31;;;;;;;0.73;0.73;;;;;;;-2.63;100.00;99587.78;5028104;28;20978;-52
2022/12/15 09:01:03;;;;;;;2.73;1.50;;;;;;;-2.22;100.00;99591.75;5025108;28;20455;-52
2022/12/15 09:03:29;;;;;;;1.90;0.90;;;;;;;-2.29;100.00;99610.78;5021385;28;20941;-52
2022/12/15 09:06:04;;;;;;;1.30;1.30;;;;;;;-2.58;100.00;99604.34;5024232;28;20520;-52
2022/12/15 09:08:31;;;;;;;3.60;3.30;;;;;;;-2.44;100.00;99608.00;5028243;28;20464;-51
2022/12/15 09:10:59;;;;;;;9.17;3.20;;;;;;;-2.55;100.00;99604.38;5027098;28;20452;-52
2022/12/15 09:13:27;;;;;;;3.50;3.40;;;;;;;-2.75;100.00;99612.78;5021424;28;20451;-52
2022/12/15 09:15:58;;;;;;;1.53;1.43;;;;;;;-2.47;100.00;99616.63;5022503;28;20476;-52
2022/12/15 09:18:35;;;;;;;2.77;2.67;;;;;;;-2.36;100.00;99621.06;5022438;28;20475;-52
2022/12/15 09:21:04;;;;;;;1.90;1.80;;;;;;;-2.52;100.00;99622.63;5020912;28;20960;-52
2022/12/15 09:23:30;;;;;;;27.53;4.00;;;;;;;-2.73;100.00;99631.91;5034311;28;20817;-52
2022/12/15 09:26:05;;;;;;;1.23;1.23;;;;;;;-2.59;100.00;99631.22;5021322;28;20492;-52
2022/12/15 09:28:32;;;;;;;4.93;1.53;;;;;;;-3.00;100.00;99634.09;5025148;28;20526;-51
2022/12/15 09:31:14;;;;;;;9.13;2.50;;;;;;;-2.88;100.00;99641.19;5027917;28;20449;-50
2022/12/15 09:33:43;;;;;;;3.60;2.27;;;;;;;-3.01;100.00;99643.63;5026080;28;20845;-52
2022/12/15 09:36:11;;;;;;;2.70;2.47;;;;;;;-3.04;100.00;99647.88;5021105;28;20797;-51
2022/12/15 09:38:40;;;;;;;4.20;2.40;;;;;;;-2.89;100.00;99639.44;5021695;28;20484;-52
2022/12/15 09:41:14;;;;;;;1.77;1.63;;;;;;;-2.98;100.00;99653.19;5027735;28;20456;-52
2022/12/15 09:43:49;;;;;;;15.30;2.93;;;;;;;-3.20;100.00;99648.50;5027315;28;20967;-51
2022/12/15 09:46:22;;;;;;;2.00;1.90;;;;;;;-3.08;100.00;99653.88;5032891;28;20497;-52
2022/12/15 09:48:50;;;;;;;2.33;1.83;;;;;;;-3.21;100.00;99659.72;5031394;28;20479;-51
2022/12/15 09:51:18;;;;;;;2.63;2.53;;;;;;;-3.15;100.00;99660.72;5019982;28;20445;-52
2022/12/15 09:53:45;;;;;;;2.73;2.53;;;;;;;-3.17;100.00;99649.41;5030710;28;20870;-53
2022/12/15 09:56:38;;;;;;;4.30;0.83;;;;;;;-2.94;100.00;99652.38;5022441;28;20571;-53
2022/12/15 09:59:19;;;;;;;1.40;1.37;;;;;;;-2.98;100.00;99653.19;5021394;28;20472;-53
2022/12/15 10:02:01;;;;;;;1.37;1.37;;;;;;;-2.94;100.00;99664.50;5020702;28;20451;-53
2022/12/15 10:04:46;;;;;;;9.03;3.57;;;;;;;-2.99;100.00;99654.91;5022400;28;20444;-53
2022/12/15 10:07:31;;;;;;;1.27;1.10;;;;;;;-2.94;100.00;99644.56;5021165;28;20905;-54
2022/12/15 10:09:57;;;;;;;2.20;2.10;;;;;;;-3.07;100.00;99650.44;5020257;28;20463;-52
2022/12/15 10:12:35;;;;;;;0.87;0.87;;;;;;;-3.24;100.00;99654.50;5023641;28;20453;-53
2022/12/15 10:15:17;;;;;;;5.10;2.57;;;;;;;-3.18;100.00;99650.25;5026982;28;20445;-53
2022/12/15 10:18:05;;;;;;;3.80;2.03;;;;;;;-2.93;100.00;99642.84;5014544;28;20440;-53
2022/12/15 10:20:32;;;;;;;1.47;1.47;;;;;;;-3.02;100.00;99635.78;5023400;28;20449;-52
2022/12/15 10:23:11;;;;;;;4.07;3.60;;;;;;;-2.73;100.00;99638.81;5030416;28;20458;-52
2022/12/15 10:25:38;;;;;;;2.10;2.00;;;;;;;-2.54;100.00;99639.94;5021581;28;20463;-53
2022/12/15 10:28:26;;;;;;;10.57;4.60;;;;;;;-2.27;100.00;99631.59;5032595;28;20494;-52
2022/12/15 10:31:03;;;;;;;4.90;2.87;;;;;;;-2.38;100.00;99631.47;5020091;28;20498;-53
2022/12/15 10:33:38;;;;;;;0.90;0.90;;;;;;;-2.39;100.00;99640.13;5022995;28;20449;-54
2022/12/15 10:36:11;;;;;;;4.50;2.63;;;;;;;-2.51;100.00;99630.44;5026758;28;20969;-53
2022/12/15 10:38:46;;;;;;;0.63;0.63;;;;;;;-2.47;100.00;99629.66;5025650;28;20476;-52
2022/12/15 10:41:24;;;;;;;6.03;4.33;;;;;;;-2.62;100.00;99629.41;5025773;28;20451;-53
2022/12/15 10:43:53;;;;;;;3.87;2.23;;;;;;;-2.48;100.00;99621.78;5026463;28;20999;-53
2022/12/15 10:46:28;;;;;;;4.57;3.40;;;;;;;-2.33;100.00;99627.22;5040972;28;20487;-53
2022/12/15 10:49:05;;;;;;;9.90;2.37;;;;;;;-2.23;100.00;99623.84;5032392;28;20464;-53
2022/12/15 10:51:43;;;;;;;1.10;0.93;;;;;;;-2.34;100.00;99622.84;5019049;28;20878;-53
2022/12/15 10:54:15;;;;;;;1.90;1.83;;;;;;;-2.51;100.00;99620.03;5030916;28;20452;-53
2022/12/15 10:56:52;;;;;;;2.00;1.83;;;;;;;-2.75;100.00;99630.97;5019695;28;20501;-53
2022/12/15 10:59:35;;;;;;;1.93;1.93;;;;;;;-2.39;100.00;99619.31;5024015;28;20527;-53
2022/12/15 11:02:19;;;;;;;8.30;4.23;;;;;;;-2.48;100.00;99627.00;5026429;28;20531;-53
2022/12/15 11:05:17;;;;;;;5.80;2.67;;;;;;;-2.32;100.00;99621.16;5026051;28;20933;-53
2022/12/15 11:07:51;;;;;;;1.13;1.13;;;;;;;-2.39;100.00;99621.91;5023800;28;20495;-53
2022/12/15 11:10:23;;;;;;;2.63;2.53;;;;;;;-2.59;100.00;99616.47;5019338;28;20446;-53
2022/12/15 11:13:17;;;;;;;3.53;2.73;;;;;;;-2.74;100.00;99627.53;5020054;28;20449;-53
2022/12/15 11:15:46;;;;;;;3.30;3.00;;;;;;;-2.79;100.00;99616.19;5016961;28;20460;-54
2022/12/15 11:18:31;;;;;;;2.43;2.33;;;;;;;-2.44;100.00;99614.06;5019201;28;20464;-54
2022/12/15 11:21:18;;;;;;;4.90;3.13;;;;;;;-2.56;100.00;99607.81;5020015;28;20502;-54
2022/12/15 11:23:57;;;;;;;4.73;3.50;;;;;;;-2.26;100.00;99603.00;5026773;28;20458;-54
2022/12/15 11:26:39;;;;;;;3.90;3.63;;;;;;;-2.16;100.00;99601.38;5019472;28;20451;-53
2022/12/15 11:29:25;;;;;;;11.23;3.60;;;;;;;-2.05;100.00;99591.09;5019818;28;20468;-54
2022/12/15 11:31:53;;;;;;;6.40;1.60;;;;;;;-2.20;100.00;99582.22;5008746;28;20458;-54
2022/12/15 11:34:29;;;;;;;4.53;3.77;;;;;;;-2.52;100.00;99571.47;5018824;28;20457;-53
2022/12/15 11:37:07;;;;;;;2.50;1.00;;;;;;;-2.15;100.00;99569.28;5005166;28;20444;-53
2022/12/15 11:40:12;;;;;;;6.10;1.90;;;;;;;-1.98;100.00;99572.94;5025478;28;20973;-53
2022/12/15 11:42:59;;;;;;;2.60;2.40;;;;;;;-1.86;100.00;99573.06;5025556;28;20867;-54
2022/12/15 11:45:41;;;;;;;3.23;3.03;;;;;;;-1.73;100.00;99563.63;5025860;28;20451;-54
2022/12/15 11:48:30;;;;;;;4.07;3.70;;;;;;;-1.87;100.00;99563.50;5031979;28;20495;-53
2022/12/15 11:51:18;;;;;;;0.83;0.83;;;;;;;-1.80;100.00;99551.38;5015795;28;20460;-53
2022/12/15 11:54:10;;;;;;;6.60;2.97;;;;;;;-1.90;100.00;99560.00;5029600;28;20494;-53
2022/12/15 11:56:50;;;;;;;4.23;3.83;;;;;;;-1.40;100.00;99551.72;5018781;28;20445;-53
2022/12/15 11:59:38;;;;;;;4.00;1.80;;;;;;;-1.44;100.00;99557.78;5023219;28;20500;-53
2022/12/15 12:02:32;;;;;;;5.40;3.10;;;;;;;-1.45;100.00;99551.69;5025593;28;20449;-53
2022/12/15 12:05:42;;;;;;;3.23;1.20;;;;;;;-1.65;100.00;99542.81;5025342;28;20865;-54
2022/12/15 12:08:27;;;;;;;2.20;2.00;;;;;;;-1.89;100.00;99543.50;5024928;28;20498;-53
2022/12/15 12:11:03;;;;;;;2.83;2.73;;;;;;;-1.66;100.00;99541.94;5023145;28;20444;-51
2022/12/15 12:13:33;;;;;;;2.43;0.87;;;;;;;-2.06;100.00;99543.31;5018326;28;20442;-54
2022/12/15 12:16:19;;;;;;;2.40;1.43;;;;;;;-2.18;100.00;99528.47;5019013;28;20449;-51
2022/12/15 12:19:01;;;;;;;1.80;1.80;;;;;;;-1.86;100.00;99520.09;5020507;28;20467;-52
2022/12/15 12:21:37;;;;;;;3.50;1.73;;;;;;;-1.93;100.00;99519.16;5018504;28;20454;-52
2022/12/15 12:24:19;;;;;;;1.97;1.87;;;;;;;-1.95;100.00;99514.78;5031560;28;20447;-51
2022/12/15 12:27:17;;;;;;;0.97;0.97;;;;;;;-1.95;100.00;99513.06;5023597;28;20484;-51
2022/12/15 12:29:48;;;;;;;2.93;2.73;;;;;;;-2.38;100.00;99509.19;4998979;28;21016;-51
2022/12/15 12:32:34;;;;;;;7.40;2.67;;;;;;;-2.13;100.00;99502.50;5014493;28;20440;-52
2022/12/15 12:35:08;;;;;;;3.70;1.20;;;;;;;-2.10;100.00;99499.91;5024580;28;20447;-51
2022/12/15 12:38:00;;;;;;;5.90;2.90;;;;;;;-1.93;100.00;99492.25;5021997;28;20479;-53
2022/12/15 12:40:50;;;;;;;3.03;1.60;;;;;;;-1.89;100.00;99483.63;5021747;28;20510;-52
2022/12/15 12:43:32;;;;;;;2.10;2.00;;;;;;;-1.89;100.00;99492.31;5024867;28;20451;-53
2022/12/15 12:46:19;;;;;;;1.03;1.03;;;;;;;-1.68;100.00;99483.75;5028524;28;20460;-52
2022/12/15 12:48:59;;;;;;;6.30;3.23;;;;;;;-1.57;100.00;99481.25;5028486;28;20561;-52
2022/12/15 12:51:29;;;;;;;3.10;3.00;;;;;;;-1.80;100.00;99481.06;5021078;28;20448;-52
2022/12/15 12:53:57;;;;;;;22.73;3.60;;;;;;;-1.71;100.00;99473.34;5033066;28;20451;-52
2022/12/15 12:56:43;;;;;;;5.90;0.90;;;;;;;-1.73;100.00;99468.97;5023702;28;20985;-52
2022/12/15 12:59:29;;;;;;;7.53;2.00;;;;;;;-1.64;100.00;99463.84;5022649;28;20989;-52
2022/12/15 13:02:14;;;;;;;5.63;5.13;;;;;;;-1.57;100.00;99470.81;5021429;28;20824;-52
2022/12/15 13:04:43;;;;;;;2.90;2.80;;;;;;;-1.39;100.00;99457.03;5022361;28;20547;-52
2022/12/15 13:07:33;;;;;;;2.50;2.30;;;;;;;-1.47;100.00;99462.22;5028511;28;20939;-54
2022/12/15 13:10:20;;;;;;;1.93;1.83;;;;;;;-1.30;100.00;99454.47;5028063;28;20483;-51
2022/12/15 13:12:55;;;;;;;2.00;1.70;;;;;;;-1.71;100.00;99455.09;5027460;28;20483;-51
2022/12/15 13:15:42;;;;;;;7.13;1.83;;;;;;;-1.73;100.00;99451.63;5021514;28;20482;-52
2022/12/15 13:18:22;;;;;;;2.93;1.20;;;;;;;-1.55;100.00;99446.53;5021256;28;20468;-52
2022/12/15 13:20:53;;;;;;;0.50;0.50;;;;;;;-2.07;100.00;99447.88;5023703;28;20539;-51
2022/12/15 13:23:22;;;;;;;5.90;3.40;;;;;;;-1.70;100.00;99430.78;5033155;28;20448;-52
2022/12/15 13:25:52;;;;;;;3.43;2.83;;;;;;;-1.77;100.00;99422.94;5022233;28;20456;-52
2022/12/15 13:28:25;;;;;;;3.17;2.87;;;;;;;-1.92;100.00;99424.59;5027634;28;20497;-51
2022/12/15 13:31:17;;;;;;;4.63;2.87;;;;;;;-1.98;100.00;99415.84;5027547;28;20450;-52
2022/12/15 13:33:51;;;;;;;15.97;3.27;;;;;;;-1.72;100.00;99406.47;5025603;28;20486;-52
2022/12/15 13:36:35;;;;;;;1.60;1.43;;;;;;;-1.40;100.00;99391.00;5020884;28;20483;-51
2022/12/15 13:39:02;;;;;;;6.07;1.30;;;;;;;-1.65;100.00;99390.00;5020618;28;20476;-52
2022/12/15 13:41:28;;;;;;;1.60;1.60;;;;;;;-1.61;100.00;99391.78;5026502;28;20448;-52
2022/12/15 13:43:57;;;;;;;2.13;1.47;;;;;;;-1.36;100.00;99386.72;5026478;28;20459;-52
2022/12/15 13:46:30;;;;;;;3.80;3.50;;;;;;;-1.39;100.00;99379.72;5043387;28;20450;-52
2022/12/15 13:49:13;;;;;;;0.90;0.90;;;;;;;-1.67;100.00;99396.06;5032862;28;20542;-51
2022/12/15 13:51:44;;;;;;;1.90;1.40;;;;;;;-1.28;100.00;99393.66;5019731;28;20498;-52
2022/12/15 13:54:31;;;;;;;2.97;1.30;;;;;;;-1.71;100.00;99391.72;5033260;28;20447;-52
2022/12/15 13:57:03;;;;;;;2.13;2.00;;;;;;;-1.83;100.00;99395.09;5020726;28;20937;-52
2022/12/15 13:59:40;;;;;;;3.90;2.50;;;;;;;-1.78;100.00;99403.84;5023434;28;20895;-52
2022/12/15 14:02:28;;;;;;;4.17;3.87;;;;;;;-1.48;100.00;99410.97;5027354;28;20451;-51
2022/12/15 14:05:25;;;;;;;3.73;2.63;;;;;;;-1.29;100.00;99406.69;5027559;28;20447;-53
2022/12/15 14:07:51;;;;;;;12.83;4.30;;;;;;;-1.36;100.00;99410.16;5027048;28;20502;-51
2022/12/15 14:10:42;;;;;;;4.90;3.73;;;;;;;-1.40;100.00;99414.47;5013800;28;20457;-51
2022/12/15 14:13:24;;;;;;;4.97;2.00;;;;;;;-1.37;100.00;99411.91;5016856;28;20556;-52